createdAt,value
2022-10-20T00:01:19.868Z,23.30
2022-10-20T00:03:48.414Z,20.83
2022-10-20T00:06:21.165Z,20.75
2022-10-20T00:08:48.900Z,20.40
2022-10-20T00:11:19.282Z,18.60
2022-10-20T00:13:48.210Z,19.52
2022-10-20T00:16:16.268Z,15.30
2022-10-20T00:18:43.606Z,18.13
2022-10-20T00:21:19.235Z,17.05
2022-10-20T00:23:46.287Z,20.08
2022-10-20T00:26:19.618Z,20.23
2022-10-20T00:28:47.708Z,16.33
2022-10-20T00:31:15.527Z,17.45
2022-10-20T00:33:42.610Z,19.42
2022-10-20T00:36:13.031Z,16.25
2022-10-20T00:38:40.076Z,21.83
2022-10-20T00:41:08.222Z,17.55
2022-10-20T00:44:03.156Z,17.48
2022-10-20T00:46:41.689Z,16.60
2022-10-20T00:49:22.091Z,20.88
2022-10-20T00:51:50.611Z,17.30
2022-10-20T00:54:22.542Z,15.02
2022-10-20T00:56:51.539Z,19.80
2022-10-20T00:59:22.474Z,16.38
2022-10-20T01:01:50.198Z,14.73
2022-10-20T01:04:17.896Z,20.20
2022-10-20T01:06:44.738Z,16.50
2022-10-20T01:09:11.870Z,16.83
2022-10-20T01:11:49.284Z,20.88
2022-10-20T01:14:28.003Z,15.88
2022-10-20T01:17:32.120Z,17.83
2022-10-20T01:20:27.598Z,15.23
2022-10-20T01:23:15.689Z,15.60
2022-10-20T01:26:08.122Z,19.05
2022-10-20T01:28:52.379Z,17.33
2022-10-20T01:31:43.341Z,17.20
2022-10-20T01:34:41.416Z,17.90
2022-10-20T01:37:48.441Z,16.00
2022-10-20T01:40:22.675Z,18.65
2022-10-20T01:42:52.393Z,20.40
2022-10-20T01:45:21.904Z,21.67
2022-10-20T01:47:51.942Z,17.00
2022-10-20T01:50:20.323Z,22.15
2022-10-20T01:52:47.560Z,14.77
2022-10-20T01:55:17.477Z,16.35
2022-10-20T01:58:14.734Z,15.32
2022-10-20T02:00:43.836Z,17.70
2022-10-20T02:03:22.817Z,14.25
2022-10-20T02:06:29.869Z,21.42
2022-10-20T02:09:01.603Z,17.33
2022-10-20T02:11:58.830Z,19.30
2022-10-20T02:14:26.134Z,14.45
2022-10-20T02:16:58.451Z,14.60
2022-10-20T02:19:30.197Z,13.50
2022-10-20T02:21:58.509Z,19.17
2022-10-20T02:24:29.230Z,17.23
2022-10-20T02:27:01.683Z,15.45
2022-10-20T02:29:33.187Z,14.40
2022-10-20T02:32:00.411Z,17.77
2022-10-20T02:34:28.312Z,21.52
2022-10-20T02:36:59.555Z,15.13
2022-10-20T02:39:27.075Z,17.77
2022-10-20T02:41:54.942Z,16.25
2022-10-20T02:44:23.018Z,15.35
2022-10-20T02:46:49.993Z,16.35
2022-10-20T02:49:17.021Z,18.75
2022-10-20T02:51:44.235Z,15.73
2022-10-20T02:54:13.893Z,15.52
2022-10-20T02:56:40.690Z,16.13
2022-10-20T02:59:08.766Z,13.15
2022-10-20T03:01:35.762Z,13.20
2022-10-20T03:04:03.107Z,15.70
2022-10-20T03:06:30.131Z,17.60
2022-10-20T03:08:57.256Z,14.95
2022-10-20T03:11:25.888Z,14.82
2022-10-20T03:13:52.734Z,17.00
2022-10-20T03:16:20.468Z,19.55
2022-10-20T03:18:47.337Z,14.90
2022-10-20T03:21:14.371Z,17.38
2022-10-20T03:23:41.183Z,17.88
2022-10-20T03:26:11.003Z,14.20
2022-10-20T03:28:39.191Z,28.20
2022-10-20T03:31:06.873Z,16.50
2022-10-20T03:33:34.729Z,17.00
2022-10-20T03:36:02.061Z,16.55
2022-10-20T03:38:28.959Z,17.88
2022-10-20T03:40:55.815Z,15.45
2022-10-20T03:43:22.737Z,17.15
2022-10-20T03:45:49.801Z,18.38
2022-10-20T03:48:16.797Z,18.50
2022-10-20T03:50:44.051Z,17.83
2022-10-20T03:53:14.244Z,17.17
2022-10-20T03:55:41.099Z,17.80
2022-10-20T03:58:08.031Z,23.17
2022-10-20T04:00:35.127Z,15.05
2022-10-20T04:03:01.950Z,16.65
2022-10-20T04:05:28.799Z,15.68
2022-10-20T04:07:55.667Z,22.73
2022-10-20T04:10:22.538Z,17.08
2022-10-20T04:12:49.504Z,21.60
2022-10-20T04:15:18.631Z,17.55
2022-10-20T04:17:45.932Z,13.48
2022-10-20T04:20:13.119Z,14.88
2022-10-20T04:22:40.624Z,14.20
2022-10-20T04:25:07.962Z,21.02
2022-10-20T04:27:35.185Z,23.83
2022-10-20T04:30:02.598Z,18.40
2022-10-20T04:32:29.600Z,20.35
2022-10-20T04:34:56.667Z,19.02
2022-10-20T04:37:23.663Z,18.00
2022-10-20T04:39:51.255Z,19.30
2022-10-20T04:42:19.103Z,19.20
2022-10-20T04:44:46.625Z,21.35
2022-10-20T04:47:17.836Z,16.95
2022-10-20T04:49:44.825Z,20.42
2022-10-20T04:52:11.768Z,19.20
2022-10-20T04:54:39.152Z,19.42
2022-10-20T04:57:06.553Z,18.83
2022-10-20T04:59:33.546Z,19.02
2022-10-20T05:02:00.623Z,16.75
2022-10-20T05:04:27.835Z,18.25
2022-10-20T05:06:54.639Z,17.30
2022-10-20T05:09:21.638Z,20.13
2022-10-20T05:11:48.654Z,20.23
2022-10-20T05:14:15.653Z,25.73
2022-10-20T05:16:42.658Z,16.92
2022-10-20T05:19:10.770Z,17.75
2022-10-20T05:21:37.717Z,22.98
2022-10-20T05:24:06.148Z,21.33
2022-10-20T05:26:37.249Z,18.65
2022-10-20T05:29:06.665Z,18.48
2022-10-20T05:31:38.245Z,24.70
2022-10-20T05:34:05.200Z,16.65
2022-10-20T05:36:32.179Z,31.92
2022-10-20T05:38:59.449Z,20.80
2022-10-20T05:41:34.882Z,20.60
2022-10-20T05:44:07.136Z,16.45
2022-10-20T05:46:35.764Z,26.83
2022-10-20T05:49:03.703Z,19.63
2022-10-20T05:51:33.762Z,17.38
2022-10-20T05:54:01.168Z,18.05
2022-10-20T05:56:29.727Z,24.25
2022-10-20T05:58:57.805Z,19.23
2022-10-20T06:01:39.607Z,23.33
2022-10-20T06:04:08.787Z,19.02
2022-10-20T06:06:36.285Z,19.35
2022-10-20T06:09:07.581Z,20.17
2022-10-20T06:11:39.254Z,22.50
2022-10-20T06:14:07.943Z,22.30
2022-10-20T06:16:35.286Z,24.98
2022-10-20T06:19:02.298Z,22.92
2022-10-20T06:21:32.488Z,19.63
2022-10-20T06:24:00.739Z,17.20
2022-10-20T06:26:30.065Z,22.15
2022-10-20T06:29:03.619Z,27.25
2022-10-20T06:31:39.079Z,23.42
2022-10-20T06:34:12.798Z,29.90
2022-10-20T06:36:41.939Z,21.00
2022-10-20T06:39:12.231Z,21.48
2022-10-20T06:41:39.752Z,27.90
2022-10-20T06:44:07.424Z,20.83
2022-10-20T06:46:36.563Z,24.92
2022-10-20T06:49:06.473Z,20.75
2022-10-20T06:51:34.386Z,18.00
2022-10-20T06:54:01.814Z,19.08
2022-10-20T06:56:30.562Z,22.25
2022-10-20T06:58:59.188Z,27.50
2022-10-20T07:01:36.159Z,22.15
2022-10-20T07:04:11.214Z,24.90
2022-10-20T07:06:40.532Z,18.45
2022-10-20T07:09:12.701Z,25.00
2022-10-20T07:11:39.994Z,25.15
2022-10-20T07:14:07.044Z,21.98
2022-10-20T07:16:35.094Z,23.00
2022-10-20T07:19:03.585Z,22.73
2022-10-20T07:21:35.768Z,26.13
2022-10-20T07:24:06.240Z,24.98
2022-10-20T07:26:35.969Z,22.65
2022-10-20T07:29:04.107Z,18.70
2022-10-20T07:31:36.882Z,20.80
2022-10-20T07:34:23.687Z,17.02
2022-10-20T07:36:52.275Z,25.50
2022-10-20T07:39:19.082Z,25.92
2022-10-20T07:41:47.841Z,21.67
2022-10-20T07:44:15.133Z,26.77
2022-10-20T07:46:42.118Z,21.10
2022-10-20T07:51:56.249Z,34.78
2022-10-20T07:54:23.301Z,22.42
2022-10-20T07:56:50.354Z,20.48
2022-10-20T07:59:17.672Z,25.13
2022-10-20T08:01:45.321Z,23.30
2022-10-20T08:04:12.188Z,27.40
2022-10-20T08:06:39.609Z,21.45
2022-10-20T08:09:07.468Z,28.33
2022-10-20T08:11:35.576Z,25.35
2022-10-20T08:14:03.210Z,20.83
2022-10-20T08:16:30.471Z,23.08
2022-10-20T08:19:21.709Z,21.65
2022-10-20T08:21:48.811Z,22.45
2022-10-20T08:24:15.670Z,22.00
2022-10-20T08:26:42.623Z,17.48
2022-10-20T08:29:10.268Z,18.02
2022-10-20T08:31:37.145Z,26.20
2022-10-20T08:34:04.254Z,23.30
2022-10-20T08:36:31.111Z,25.30
2022-10-20T08:39:05.064Z,23.17
2022-10-20T08:42:02.631Z,25.42
2022-10-20T08:44:32.580Z,26.90
2022-10-20T08:47:02.857Z,28.25
2022-10-20T08:49:32.977Z,25.92
2022-10-20T08:52:00.903Z,28.63
2022-10-20T08:54:27.955Z,24.88
2022-10-20T08:56:55.106Z,27.75
2022-10-20T08:59:29.922Z,26.50
2022-10-20T09:01:58.444Z,29.02
2022-10-20T09:04:47.688Z,23.83
2022-10-20T09:07:35.324Z,31.65
2022-10-20T09:10:30.529Z,26.90
2022-10-20T09:12:58.556Z,31.63
2022-10-20T09:15:29.067Z,31.50
2022-10-20T09:18:10.423Z,31.75
2022-10-20T09:20:44.908Z,37.35
2022-10-20T09:23:39.965Z,41.15
2022-10-20T09:26:32.086Z,35.50
2022-10-20T09:29:19.901Z,35.75
2022-10-20T09:31:53.836Z,39.28
2022-10-20T09:34:22.160Z,35.97
2022-10-20T09:36:50.915Z,33.08
2022-10-20T09:39:23.382Z,35.25
2022-10-20T09:41:58.902Z,38.15
2022-10-20T09:44:26.083Z,31.63
2022-10-20T09:46:54.559Z,38.88
2022-10-20T09:49:36.430Z,31.80
2022-10-20T09:52:14.177Z,29.05
2022-10-20T09:54:41.190Z,27.55
2022-10-20T09:57:14.994Z,32.85
2022-10-20T09:59:47.091Z,36.08
2022-10-20T10:02:15.629Z,26.15
2022-10-20T10:04:48.195Z,27.98
2022-10-20T10:07:27.200Z,27.13
2022-10-20T10:10:08.098Z,23.65
2022-10-20T10:12:36.086Z,30.65
2022-10-20T10:15:23.649Z,22.17
2022-10-20T10:17:51.261Z,32.13
2022-10-20T10:20:47.836Z,27.92
2022-10-20T10:23:21.882Z,22.02
2022-10-20T10:25:50.486Z,22.08
2022-10-20T10:28:22.471Z,26.75
2022-10-20T10:30:50.136Z,22.05
2022-10-20T10:33:23.294Z,22.45
2022-10-20T10:35:50.218Z,24.13
2022-10-20T10:38:17.716Z,20.80
2022-10-20T10:41:21.818Z,24.92
2022-10-20T10:44:14.182Z,25.58
2022-10-20T10:46:48.846Z,24.77
2022-10-20T10:49:47.137Z,21.95
2022-10-20T10:52:46.691Z,22.50
2022-10-20T10:55:47.921Z,20.85
2022-10-20T10:58:30.377Z,24.00
2022-10-20T11:01:12.825Z,21.40
2022-10-20T11:03:55.238Z,18.65
2022-10-20T11:06:30.982Z,17.55
2022-10-20T11:09:29.441Z,22.70
2022-10-20T11:12:23.619Z,18.88
2022-10-20T11:15:27.562Z,16.38
2022-10-20T11:18:15.008Z,16.23
2022-10-20T11:20:47.151Z,15.68
2022-10-20T11:23:19.857Z,20.25
2022-10-20T11:25:52.002Z,13.52
2022-10-20T11:28:44.644Z,14.57
2022-10-20T11:31:48.854Z,14.27
2022-10-20T11:34:30.184Z,11.88
2022-10-20T11:37:13.180Z,14.52
2022-10-20T11:39:48.088Z,13.90
2022-10-20T11:42:40.773Z,12.75
2022-10-20T11:45:30.324Z,9.95
2022-10-20T11:48:03.141Z,18.13
2022-10-20T11:50:31.846Z,10.52
2022-10-20T11:53:25.040Z,10.85
2022-10-20T11:56:09.783Z,11.10
2022-10-20T11:59:13.350Z,15.60
2022-10-20T12:02:19.369Z,10.30
2022-10-20T12:05:02.518Z,10.45
2022-10-20T12:08:00.838Z,10.05
2022-10-20T12:11:16.389Z,10.35
2022-10-20T12:14:12.556Z,10.20
2022-10-20T12:16:54.630Z,9.85
2022-10-20T12:19:30.135Z,7.10
2022-10-20T12:22:15.138Z,13.88
2022-10-20T12:25:02.395Z,6.43
2022-10-20T12:27:30.331Z,9.15
2022-10-20T12:30:18.572Z,7.88
2022-10-20T12:32:58.628Z,9.48
2022-10-20T12:35:25.381Z,24.58
2022-10-20T12:37:58.782Z,5.80
2022-10-20T12:40:31.565Z,9.55
2022-10-20T12:42:59.502Z,10.45
2022-10-20T12:45:39.183Z,13.73
2022-10-20T12:48:07.974Z,8.45
2022-10-20T12:50:42.056Z,6.97
2022-10-20T12:53:14.413Z,5.63
2022-10-20T12:55:44.201Z,8.63
2022-10-20T12:58:20.074Z,9.30
2022-10-20T13:00:47.261Z,8.20
2022-10-20T13:03:32.913Z,9.63
2022-10-20T13:06:00.897Z,8.50
2022-10-20T13:08:35.878Z,8.27
2022-10-20T13:11:41.109Z,12.68
2022-10-20T13:14:17.613Z,10.07
2022-10-20T13:16:50.666Z,5.00
2022-10-20T13:19:25.155Z,6.72
2022-10-20T13:21:52.551Z,6.45
2022-10-20T13:24:28.677Z,8.20
2022-10-20T13:26:59.757Z,11.88
2022-10-20T13:29:40.361Z,5.15
2022-10-20T13:32:13.041Z,7.45
2022-10-20T13:35:02.417Z,7.65
2022-10-20T13:37:44.703Z,5.72
2022-10-20T13:40:23.731Z,10.02
2022-10-20T13:43:09.474Z,6.18
2022-10-20T13:46:19.676Z,9.27
2022-10-20T13:48:55.327Z,6.13
2022-10-20T13:51:28.587Z,10.10
2022-10-20T13:54:05.669Z,10.93
2022-10-20T13:56:46.435Z,9.50
2022-10-20T13:59:19.453Z,7.00
2022-10-20T14:01:56.231Z,9.75
2022-10-20T14:04:37.159Z,6.93
2022-10-20T14:07:15.755Z,7.22
2022-10-20T14:09:46.783Z,9.50
2022-10-20T14:12:24.084Z,3.20
2022-10-20T14:14:51.469Z,4.35
2022-10-20T14:17:22.244Z,4.28
2022-10-20T14:19:51.255Z,5.35
2022-10-20T14:22:23.803Z,6.07
2022-10-20T14:24:56.892Z,7.10
2022-10-20T14:27:30.922Z,7.45
2022-10-20T14:29:58.660Z,3.75
2022-10-20T14:32:29.585Z,4.10
2022-10-20T14:35:14.588Z,6.80
2022-10-20T14:37:46.856Z,3.60
2022-10-20T14:40:28.812Z,5.43
2022-10-20T14:43:13.365Z,3.17
2022-10-20T14:45:40.676Z,9.20
2022-10-20T14:48:15.503Z,3.60
2022-10-20T14:50:42.470Z,7.20
2022-10-20T14:53:32.647Z,3.63
2022-10-20T14:56:02.670Z,6.93
2022-10-20T14:58:35.858Z,3.85
2022-10-20T15:01:24.427Z,6.43
2022-10-20T15:04:22.297Z,4.72
2022-10-20T15:06:49.790Z,4.70
2022-10-20T15:09:27.715Z,5.55
2022-10-20T15:11:57.821Z,2.78
2022-10-20T15:14:25.039Z,4.90
2022-10-20T15:16:53.941Z,2.55
2022-10-20T15:19:23.743Z,5.07
2022-10-20T15:22:08.149Z,2.95
2022-10-20T15:24:35.719Z,5.75
2022-10-20T15:27:03.137Z,5.95
2022-10-20T15:29:30.965Z,6.93
2022-10-20T15:31:58.332Z,8.40
2022-10-20T15:34:25.677Z,10.77
2022-10-20T15:36:52.619Z,8.98
2022-10-20T15:39:19.668Z,6.20
2022-10-20T15:41:49.011Z,4.40
2022-10-20T15:44:22.360Z,6.10
2022-10-20T15:46:53.401Z,5.13
2022-10-20T15:49:20.344Z,6.97
2022-10-20T15:51:50.429Z,3.95
2022-10-20T15:54:20.270Z,8.43
2022-10-20T15:56:47.637Z,8.85
2022-10-20T15:59:14.814Z,6.88
2022-10-20T16:01:42.147Z,7.35
2022-10-20T16:04:26.336Z,5.93
2022-10-20T16:06:57.828Z,9.85
2022-10-20T16:09:27.654Z,9.52
2022-10-20T16:12:04.395Z,8.25
2022-10-20T16:14:31.644Z,5.18
2022-10-20T16:17:01.136Z,9.90
2022-10-20T16:19:28.203Z,8.10
2022-10-20T16:21:55.180Z,5.75
2022-10-20T16:24:21.938Z,3.75
2022-10-20T16:26:49.720Z,10.13
2022-10-20T16:29:16.758Z,5.88
2022-10-20T16:31:43.721Z,9.73
2022-10-20T16:34:10.952Z,12.15
2022-10-20T16:36:38.497Z,7.05
2022-10-20T16:39:05.442Z,5.97
2022-10-20T16:41:32.386Z,9.10
2022-10-20T16:44:01.168Z,9.32
2022-10-20T16:46:28.384Z,10.13
2022-10-20T16:48:57.364Z,5.88
2022-10-20T16:51:24.630Z,3.97
2022-10-20T16:53:51.470Z,11.98
2022-10-20T16:56:20.841Z,5.25
2022-10-20T16:58:49.095Z,6.78
2022-10-20T17:01:18.955Z,8.18
2022-10-20T17:03:52.125Z,7.32
2022-10-20T17:06:21.871Z,9.35
2022-10-20T17:08:49.063Z,11.35
2022-10-20T17:11:19.805Z,7.78
2022-10-20T17:13:47.916Z,7.00
2022-10-20T17:16:17.779Z,8.90
2022-10-20T17:18:45.096Z,8.70
2022-10-20T17:21:14.261Z,6.85
2022-10-20T17:23:43.705Z,10.63
2022-10-20T17:26:22.296Z,12.48
2022-10-20T17:28:49.767Z,10.20
2022-10-20T17:31:18.307Z,9.95
2022-10-20T17:33:46.081Z,8.38
2022-10-20T17:36:13.503Z,11.32
2022-10-20T17:38:44.154Z,11.07
2022-10-20T17:41:14.529Z,9.60
2022-10-20T17:43:41.980Z,11.32
2022-10-20T17:46:14.455Z,12.80
2022-10-20T17:48:41.875Z,6.57
2022-10-20T17:51:14.898Z,7.70
2022-10-20T17:53:48.137Z,4.32
2022-10-20T17:56:21.011Z,5.75
2022-10-20T17:58:49.874Z,13.30
2022-10-20T18:01:21.008Z,8.10
2022-10-20T18:03:53.330Z,10.30
2022-10-20T18:06:22.459Z,9.73
2022-10-20T18:08:49.773Z,7.20
2022-10-20T18:11:19.786Z,6.53
2022-10-20T18:13:47.385Z,9.00
2022-10-20T18:16:16.941Z,4.85
2022-10-20T18:18:44.722Z,11.95
2022-10-20T18:21:13.304Z,9.15
2022-10-20T18:23:44.113Z,9.30
2022-10-20T18:26:15.149Z,5.53
2022-10-20T18:28:48.141Z,6.70
2022-10-20T18:31:20.354Z,6.28
2022-10-20T18:33:47.859Z,6.05
2022-10-20T18:36:16.606Z,7.05
2022-10-20T18:38:48.469Z,6.13
2022-10-20T18:41:19.581Z,8.35
2022-10-20T18:43:57.004Z,9.10
2022-10-20T18:46:26.382Z,6.30
2022-10-20T18:48:53.716Z,6.45
2022-10-20T18:51:20.855Z,6.95
2022-10-20T18:53:52.074Z,7.88
2022-10-20T18:56:20.818Z,7.72
2022-10-20T18:59:02.672Z,5.38
2022-10-20T19:01:32.778Z,8.68
2022-10-20T19:04:00.580Z,9.43
2022-10-20T19:06:47.731Z,8.02
2022-10-20T19:09:17.516Z,13.55
2022-10-20T19:11:45.793Z,10.43
2022-10-20T19:14:13.756Z,8.07
2022-10-20T19:16:43.071Z,5.35
2022-10-20T19:19:11.136Z,7.13
2022-10-20T19:21:38.469Z,6.55
2022-10-20T19:24:08.581Z,10.48
2022-10-20T19:26:40.829Z,9.70
2022-10-20T19:29:11.733Z,8.40
2022-10-20T19:31:52.982Z,9.23
2022-10-20T19:34:24.057Z,5.47
2022-10-20T19:36:51.732Z,10.60
2022-10-20T19:39:26.941Z,14.90
2022-10-20T19:41:59.041Z,13.63
2022-10-20T19:44:26.501Z,14.98
2022-10-20T19:46:53.540Z,7.55
2022-10-20T19:49:21.806Z,10.95
2022-10-20T19:51:49.300Z,18.38
2022-10-20T19:54:16.666Z,16.13
2022-10-20T19:56:43.786Z,18.50
2022-10-20T19:59:10.804Z,12.68
2022-10-20T20:01:39.481Z,11.90
2022-10-20T20:04:07.054Z,14.95
2022-10-20T20:06:35.161Z,11.93
2022-10-20T20:09:06.173Z,16.58
2022-10-20T20:11:36.201Z,7.95
2022-10-20T20:14:10.619Z,11.63
2022-10-20T20:16:39.183Z,10.30
2022-10-20T20:19:06.508Z,10.05
2022-10-20T20:21:33.740Z,11.20
2022-10-20T20:24:03.247Z,10.80
2022-10-20T20:26:32.414Z,10.13
2022-10-20T20:28:59.964Z,7.25
2022-10-20T20:31:27.961Z,9.27
2022-10-20T20:33:56.947Z,12.18
2022-10-20T20:36:28.029Z,11.35
2022-10-20T20:38:59.776Z,16.02
2022-10-20T20:41:30.160Z,16.45
2022-10-20T20:43:57.803Z,9.15
2022-10-20T20:46:29.390Z,13.77
2022-10-20T20:49:00.659Z,14.68
2022-10-20T20:51:29.051Z,9.77
2022-10-20T20:53:56.437Z,14.75
2022-10-20T20:56:26.794Z,13.00
2022-10-20T20:58:55.299Z,11.27
2022-10-20T21:01:25.312Z,12.23
2022-10-20T21:04:03.370Z,10.32
2022-10-20T21:07:00.635Z,6.65
2022-10-20T21:09:26.309Z,9.93
2022-10-20T21:11:53.193Z,10.43
2022-10-20T21:14:20.069Z,7.78
2022-10-20T21:16:47.056Z,6.88
2022-10-20T21:19:14.309Z,6.28
2022-10-20T21:21:44.385Z,15.77
2022-10-20T21:24:12.765Z,10.52
2022-10-20T21:26:39.859Z,9.07
2022-10-20T21:29:06.948Z,6.85
2022-10-20T21:31:33.994Z,8.65
2022-10-20T21:34:03.690Z,5.03
2022-10-20T21:36:32.918Z,5.60
2022-10-20T21:39:00.607Z,8.13
2022-10-20T21:41:30.068Z,9.75
2022-10-20T21:43:59.675Z,10.82
2022-10-20T21:46:32.497Z,11.55
2022-10-20T21:49:01.833Z,11.60
2022-10-20T21:51:37.090Z,9.50
2022-10-20T21:54:06.922Z,16.13
2022-10-20T21:56:40.195Z,12.60
2022-10-20T21:59:08.763Z,10.55
2022-10-20T22:01:36.111Z,18.45
2022-10-20T22:04:03.875Z,16.80
2022-10-20T22:06:30.828Z,18.10
2022-10-20T22:08:59.625Z,16.88
2022-10-20T22:11:30.056Z,18.70
2022-10-20T22:13:57.827Z,20.52
2022-10-20T22:16:34.770Z,21.25
2022-10-20T22:19:03.082Z,15.38
2022-10-20T22:21:30.701Z,14.93
2022-10-20T22:23:59.251Z,14.43
2022-10-20T22:26:27.976Z,26.40
2022-10-20T22:28:55.785Z,18.88
2022-10-20T22:31:23.632Z,14.07
2022-10-20T22:33:58.932Z,16.10
2022-10-20T22:36:27.130Z,21.17
2022-10-20T22:38:54.126Z,22.55
2022-10-20T22:41:21.663Z,23.88
2022-10-20T22:43:48.576Z,26.10
2022-10-20T22:46:16.036Z,20.65
2022-10-20T22:48:44.243Z,23.67
2022-10-20T22:51:11.900Z,15.88
2022-10-20T22:53:39.388Z,23.63
2022-10-20T22:56:09.047Z,18.02
2022-10-20T22:58:36.714Z,15.35
2022-10-20T23:01:09.788Z,10.52
2022-10-20T23:03:37.742Z,9.20
2022-10-20T23:06:13.577Z,18.75
2022-10-20T23:08:46.122Z,10.90
2022-10-20T23:11:13.544Z,11.40
2022-10-20T23:13:40.489Z,8.93
2022-10-20T23:16:07.963Z,11.27
2022-10-20T23:18:35.042Z,11.38
2022-10-20T23:21:01.880Z,11.40
2022-10-20T23:23:29.135Z,10.10
2022-10-20T23:25:57.545Z,11.23
2022-10-20T23:28:26.475Z,11.13
2022-10-20T23:30:53.427Z,12.32
2022-10-20T23:33:23.238Z,9.18
2022-10-20T23:35:50.141Z,9.73
2022-10-20T23:38:17.080Z,11.07
2022-10-20T23:40:44.356Z,9.40
2022-10-20T23:43:11.329Z,8.40
2022-10-20T23:45:38.301Z,10.15
2022-10-20T23:48:05.375Z,10.25
2022-10-20T23:50:32.495Z,9.35
2022-10-20T23:52:59.478Z,11.27
2022-10-20T23:55:26.643Z,7.63
2022-10-20T23:57:53.558Z,8.02
